Time;durP1;ratioP1;P1;durP2;ratioP2;P2;SDS_P1;SDS_P2;PMS_P1;PMS_P2;Temp;Humidity;BMP_temperature;BMP_pressure;BME280_temperature;BME280_humidity;BME280_pressure;Samples;Min_cycle;Max_cycle;Signal;HPM_P1;HPM_P2
2022/08/28 00:01:31;;;;;;;;;;;24.10;48.20;;;;;;5018416;28;19913;-81
2022/08/28 00:03:57;;;;;;;;;;;24.10;48.30;;;;;;5013383;28;19988;-82
2022/08/28 00:06:23;;;;;;;;;;;;;;;;;;5013117;28;19905;-81
2022/08/28 00:08:49;;;;;;;;;;;24.00;48.00;;;;;;5014852;28;19971;-81
2022/08/28 00:11:15;;;;;;;;;;;24.00;48.50;;;;;;5004227;28;19921;-81
2022/08/28 00:13:40;;;;;;;;;;;23.90;48.40;;;;;;5017148;28;19905;-81
2022/08/28 00:16:06;;;;;;;;;;;23.90;48.60;;;;;;5005030;28;20371;-80
2022/08/28 00:18:32;;;;;;;;;;;23.90;48.70;;;;;;5018505;28;19909;-82
2022/08/28 00:20:58;;;;;;;;;;;23.80;48.70;;;;;;5012773;28;19920;-83
2022/08/28 00:23:24;;;;;;;;;;;23.80;48.80;;;;;;5017057;28;19906;-84
2022/08/28 00:25:50;;;;;;;;;;;23.80;49.00;;;;;;5016382;28;19909;-83
2022/08/28 00:28:16;;;;;;;;;;;23.80;48.80;;;;;;5006830;28;19993;-84
2022/08/28 00:30:47;;;;;;;;;;;23.80;48.80;;;;;;5014093;28;19910;-83
2022/08/28 00:33:12;;;;;;;;;;;23.70;48.80;;;;;;5016689;28;20302;-83
2022/08/28 00:35:39;;;;;;;;;;;23.70;48.90;;;;;;5015414;28;19909;-83
2022/08/28 00:38:06;;;;;;;;;;;23.70;49.00;;;;;;5021764;28;19906;-83
2022/08/28 00:40:31;;;;;;;;;;;23.70;49.40;;;;;;5034965;28;19967;-83
2022/08/28 00:42:57;;;;;;;;;;;23.60;49.30;;;;;;5020765;28;19909;-83
2022/08/28 00:45:24;;;;;;;;;;;23.70;49.50;;;;;;5011165;28;19906;-82
2022/08/28 00:47:49;;;;;;;;;;;23.70;49.40;;;;;;5019944;28;20429;-83
2022/08/28 00:50:17;;;;;;;;;;;23.60;49.40;;;;;;5020699;28;19906;-81
2022/08/28 00:52:47;;;;;;;;;;;23.60;49.50;;;;;;5017032;28;19928;-83
2022/08/28 00:55:14;;;;;;;;;;;23.60;49.80;;;;;;5016605;28;20362;-84
2022/08/28 00:57:43;;;;;;;;;;;23.60;49.80;;;;;;5016688;28;19905;-83
2022/08/28 01:00:13;;;;;;;;;;;23.60;49.80;;;;;;5002851;28;19917;-82
2022/08/28 01:02:39;;;;;;;;;;;23.70;50.00;;;;;;5016147;28;19909;-83
2022/08/28 01:05:08;;;;;;;;;;;23.70;49.90;;;;;;5016229;28;19959;-83
2022/08/28 01:07:35;;;;;;;;;;;23.70;49.90;;;;;;5016205;28;19932;-84
2022/08/28 01:10:00;;;;;;;;;;;23.70;50.00;;;;;;5020171;28;20378;-82
2022/08/28 01:12:28;;;;;;;;;;;23.70;50.20;;;;;;5018713;28;19929;-83
2022/08/28 01:14:58;;;;;;;;;;;23.70;50.20;;;;;;5015645;28;19905;-84
2022/08/28 01:17:27;;;;;;;;;;;23.70;50.30;;;;;;5017342;28;19905;-83
2022/08/28 01:19:57;;;;;;;;;;;23.70;50.30;;;;;;5001719;28;19913;-83
2022/08/28 01:22:29;;;;;;;;;;;23.70;50.30;;;;;;5002593;28;19955;-85
2022/08/28 01:24:56;;;;;;;;;;;23.70;50.40;;;;;;5016077;28;19905;-84
2022/08/28 01:27:22;;;;;;;;;;;23.70;50.50;;;;;;5016011;28;19947;-84
2022/08/28 01:29:49;;;;;;;;;;;23.70;50.70;;;;;;5016391;28;19971;-85
2022/08/28 01:32:32;;;;;;;;;;;23.70;50.80;;;;;;5015909;28;19905;-82
2022/08/28 01:34:58;;;;;;;;;;;23.70;50.70;;;;;;5016552;28;19952;-82
2022/08/28 01:37:24;;;;;;;;;;;23.60;50.80;;;;;;5015223;28;19945;-83
2022/08/28 01:39:50;;;;;;;;;;;23.60;50.90;;;;;;5015711;28;19979;-82
2022/08/28 01:42:16;;;;;;;;;;;23.50;51.10;;;;;;5001852;28;19906;-83
2022/08/28 01:44:41;;;;;;;;;;;23.50;51.10;;;;;;5007816;28;20290;-82
2022/08/28 01:47:07;;;;;;;;;;;23.50;51.40;;;;;;5010792;28;19921;-82
2022/08/28 01:49:33;;;;;;;;;;;23.50;51.40;;;;;;5006033;28;20034;-82
2022/08/28 01:51:59;;;;;;;;;;;23.50;51.60;;;;;;5010392;28;19913;-82
2022/08/28 01:54:25;;;;;;;;;;;23.40;51.80;;;;;;5015111;28;19928;-83
2022/08/28 01:56:51;;;;;;;;;;;23.40;51.90;;;;;;5015216;28;19912;-81
2022/08/28 01:59:17;;;;;;;;;;;23.40;52.10;;;;;;5015138;28;19909;-82
2022/08/28 02:01:42;;;;;;;;;;;23.30;52.10;;;;;;5015959;28;19914;-83
2022/08/28 02:04:08;;;;;;;;;;;23.30;52.40;;;;;;5018224;28;19909;-82
2022/08/28 02:06:35;;;;;;;;;;;23.30;52.70;;;;;;5014983;28;19909;-82
2022/08/28 02:09:00;;;;;;;;;;;23.20;52.80;;;;;;5018440;28;20354;-81
2022/08/28 02:11:28;;;;;;;;;;;23.10;53.20;;;;;;5002432;28;19965;-81
2022/08/28 02:13:54;;;;;;;;;;;23.10;53.30;;;;;;5005879;28;19905;-82
2022/08/28 02:16:20;;;;;;;;;;;23.10;53.60;;;;;;5031442;28;19905;-82
2022/08/28 02:18:45;;;;;;;;;;;23.00;53.60;;;;;;5024967;28;20359;-82
2022/08/28 02:21:11;;;;;;;;;;;22.90;53.60;;;;;;5014818;28;19913;-81
2022/08/28 02:23:38;;;;;;;;;;;23.00;53.90;;;;;;4997709;28;19996;-80
2022/08/28 02:26:04;;;;;;;;;;;22.90;54.10;;;;;;5019370;28;19905;-82
2022/08/28 02:28:30;;;;;;;;;;;22.90;54.00;;;;;;5015245;28;19905;-81
2022/08/28 02:30:57;;;;;;;;;;;22.90;54.10;;;;;;5015137;28;19947;-82
2022/08/28 02:33:22;;;;;;;;;;;22.80;54.30;;;;;;5015282;28;19905;-83
2022/08/28 02:35:48;;;;;;;;;;;22.80;54.20;;;;;;5025076;28;20011;-83
2022/08/28 02:38:14;;;;;;;;;;;22.80;54.80;;;;;;5006248;28;19910;-84
2022/08/28 02:40:40;;;;;;;;;;;22.80;54.50;;;;;;5019704;28;19929;-83
2022/08/28 02:43:06;;;;;;;;;;;22.80;54.50;;;;;;4997744;28;19909;-83
2022/08/28 02:45:32;;;;;;;;;;;22.80;54.80;;;;;;5013595;28;20347;-83
2022/08/28 02:47:57;;;;;;;;;;;22.80;54.90;;;;;;5008559;28;19918;-83
2022/08/28 02:50:23;;;;;;;;;;;22.80;54.90;;;;;;5009410;28;20282;-83
2022/08/28 02:52:50;;;;;;;;;;;22.80;55.10;;;;;;5014709;28;19915;-83
2022/08/28 02:55:16;;;;;;;;;;;22.80;54.90;;;;;;4996219;28;20417;-84
2022/08/28 02:57:42;;;;;;;;;;;22.80;54.80;;;;;;4999670;28;20393;-83
2022/08/28 03:00:13;;;;;;;;;;;22.80;54.90;;;;;;4996922;28;19917;-84
2022/08/28 03:02:39;;;;;;;;;;;22.80;54.90;;;;;;5014513;28;19941;-83
2022/08/28 03:05:05;;;;;;;;;;;22.80;54.80;;;;;;5014127;28;20372;-83
2022/08/28 03:07:30;;;;;;;;;;;22.80;54.90;;;;;;5014170;28;19999;-82
2022/08/28 03:09:56;;;;;;;;;;;22.80;55.10;;;;;;5013904;28;20328;-82
2022/08/28 03:12:23;;;;;;;;;;;22.80;55.00;;;;;;5011599;28;19914;-81
2022/08/28 03:14:52;;;;;;;;;;;22.80;55.20;;;;;;5014271;28;19955;-83
2022/08/28 03:17:18;;;;;;;;;;;22.80;55.10;;;;;;5014109;28;19916;-82
2022/08/28 03:19:44;;;;;;;;;;;22.80;55.20;;;;;;5001479;28;20355;-83
2022/08/28 03:22:10;;;;;;;;;;;22.80;55.10;;;;;;5011270;28;19906;-82
2022/08/28 03:24:36;;;;;;;;;;;22.80;55.30;;;;;;4995890;28;20366;-82
2022/08/28 03:27:02;;;;;;;;;;;22.80;55.30;;;;;;5012619;28;19975;-83
2022/08/28 03:29:28;;;;;;;;;;;22.90;55.30;;;;;;5012074;28;19951;-82
2022/08/28 03:31:54;;;;;;;;;;;22.90;55.30;;;;;;5012495;28;19909;-80
2022/08/28 03:34:19;;;;;;;;;;;22.90;55.40;;;;;;5013413;28;19951;-84
2022/08/28 03:36:45;;;;;;;;;;;22.90;55.60;;;;;;5013429;28;19962;-83
2022/08/28 03:39:12;;;;;;;;;;;22.90;55.50;;;;;;5013787;28;19988;-84
2022/08/28 03:41:39;;;;;;;;;;;22.80;55.60;;;;;;5014158;28;19917;-83
2022/08/28 03:44:05;;;;;;;;;;;22.80;55.80;;;;;;5010204;28;19956;-82
2022/08/28 03:46:31;;;;;;;;;;;22.70;55.90;;;;;;5002509;28;19912;-83
2022/08/28 03:48:57;;;;;;;;;;;22.80;56.10;;;;;;5012881;28;20012;-82
2022/08/28 03:51:25;;;;;;;;;;;22.70;56.00;;;;;;5015587;28;19940;-82
2022/08/28 03:53:51;;;;;;;;;;;22.70;56.00;;;;;;5017907;28;20044;-83
2022/08/28 03:56:21;;;;;;;;;;;22.70;56.10;;;;;;5013556;28;19909;-84
2022/08/28 03:58:47;;;;;;;;;;;22.70;56.20;;;;;;5014238;28;19972;-83
2022/08/28 04:01:13;;;;;;;;;;;22.70;56.10;;;;;;5013590;28;19917;-83
2022/08/28 04:03:38;;;;;;;;;;;22.80;56.40;;;;;;5013254;28;19909;-82
2022/08/28 04:06:04;;;;;;;;;;;22.80;56.20;;;;;;5012274;28;19916;-82
2022/08/28 04:08:30;;;;;;;;;;;22.80;56.10;;;;;;5013819;28;19939;-82
2022/08/28 04:10:58;;;;;;;;;;;22.80;56.30;;;;;;5013834;28;19952;-85
2022/08/28 04:13:24;;;;;;;;;;;22.80;56.20;;;;;;5014536;28;19927;-82
2022/08/28 04:16:00;;;;;;;;;;;22.80;56.20;;;;;;4986654;28;20008;-83
2022/08/28 04:18:26;;;;;;;;;;;22.90;56.10;;;;;;5015700;28;19906;-81
2022/08/28 04:21:02;;;;;;;;;;;23.00;56.10;;;;;;4995861;28;19917;-81
2022/08/28 04:23:28;;;;;;;;;;;23.10;56.00;;;;;;5014085;28;19909;-81
2022/08/28 04:25:54;;;;;;;;;;;23.20;55.80;;;;;;5012645;28;20389;-81
2022/08/28 04:28:21;;;;;;;;;;;23.30;55.50;;;;;;4995361;28;19913;-81
2022/08/28 04:30:49;;;;;;;;;;;23.40;55.50;;;;;;5015396;28;19913;-80
2022/08/28 04:33:15;;;;;;;;;;;23.30;55.60;;;;;;5013735;28;19906;-81
2022/08/28 04:35:41;;;;;;;;;;;23.30;55.70;;;;;;4996199;28;19959;-82
2022/08/28 04:38:07;;;;;;;;;;;23.30;55.60;;;;;;5015287;28;20029;-81
2022/08/28 04:40:32;;;;;;;;;;;23.30;55.60;;;;;;5016268;28;20406;-81
2022/08/28 04:42:58;;;;;;;;;;;23.30;55.70;;;;;;5019059;28;20351;-81
2022/08/28 04:45:24;;;;;;;;;;;23.30;56.00;;;;;;4995860;28;19913;-81
2022/08/28 04:47:49;;;;;;;;;;;23.20;56.00;;;;;;5013470;28;19917;-82
2022/08/28 04:50:15;;;;;;;;;;;23.10;56.10;;;;;;5013309;28;19910;-83
2022/08/28 04:52:42;;;;;;;;;;;23.10;56.10;;;;;;5013639;28;19912;-83
2022/08/28 04:55:08;;;;;;;;;;;23.20;56.20;;;;;;5013643;28;19909;-81
2022/08/28 04:57:34;;;;;;;;;;;23.20;56.10;;;;;;5008447;28;19909;-82
2022/08/28 04:59:59;;;;;;;;;;;23.30;56.10;;;;;;5002837;28;19977;-81
2022/08/28 05:02:25;;;;;;;;;;;23.30;56.00;;;;;;5010539;28;20008;-82
2022/08/28 05:04:51;;;;;;;;;;;23.30;56.00;;;;;;5017594;28;19951;-82
2022/08/28 05:07:16;;;;;;;;;;;23.40;55.90;;;;;;5015820;28;19913;-81
2022/08/28 05:09:42;;;;;;;;;;;23.40;55.80;;;;;;5015536;28;19916;-84
2022/08/28 05:12:08;;;;;;;;;;;23.40;55.60;;;;;;5016130;28;19941;-84
2022/08/28 05:14:34;;;;;;;;;;;23.50;55.50;;;;;;4997787;28;19916;-82
2022/08/28 05:16:59;;;;;;;;;;;23.60;55.50;;;;;;5017745;28;20278;-82
2022/08/28 05:19:26;;;;;;;;;;;23.60;55.40;;;;;;5016150;28;19992;-81
2022/08/28 05:21:52;;;;;;;;;;;23.70;55.40;;;;;;5014544;28;19960;-81
2022/08/28 05:24:18;;;;;;;;;;;23.70;55.40;;;;;;5016786;28;19918;-82
2022/08/28 05:26:44;;;;;;;;;;;23.80;55.30;;;;;;5017182;28;19952;-80
2022/08/28 05:29:10;;;;;;;;;;;23.90;55.20;;;;;;5015883;28;19909;-81
2022/08/28 05:31:37;;;;;;;;;;;24.00;55.10;;;;;;5018308;28;20318;-82
2022/08/28 05:34:03;;;;;;;;;;;24.10;54.90;;;;;;5015167;28;19947;-81
2022/08/28 05:36:31;;;;;;;;;;;24.20;54.90;;;;;;4998279;28;19912;-82
2022/08/28 05:38:57;;;;;;;;;;;24.30;54.80;;;;;;5014175;28;19906;-81
2022/08/28 05:41:24;;;;;;;;;;;24.30;54.50;;;;;;5003929;28;20407;-81
2022/08/28 05:43:51;;;;;;;;;;;24.30;54.50;;;;;;4997658;28;19905;-81
2022/08/28 05:46:17;;;;;;;;;;;24.30;54.50;;;;;;4996205;28;20382;-82
2022/08/28 05:48:44;;;;;;;;;;;24.20;54.40;;;;;;4991024;28;19917;-81
2022/08/28 05:51:11;;;;;;;;;;;24.10;54.50;;;;;;5015342;28;19996;-81
2022/08/28 05:53:40;;;;;;;;;;;24.20;54.60;;;;;;5015658;28;19910;-80
2022/08/28 05:56:13;;;;;;;;;;;24.30;54.50;;;;;;5015718;28;19913;-81
2022/08/28 05:58:39;;;;;;;;;;;24.40;54.30;;;;;;5017025;28;19910;-82
2022/08/28 06:01:15;;;;;;;;;;;24.50;54.30;;;;;;5001791;28;19928;-82
2022/08/28 06:03:42;;;;;;;;;;;24.70;54.10;;;;;;5006989;28;20375;-83
2022/08/28 06:06:08;;;;;;;;;;;24.90;53.80;;;;;;5014759;28;20403;-82
2022/08/28 06:08:34;;;;;;;;;;;25.20;53.50;;;;;;5015916;28;19906;-82
2022/08/28 06:11:02;;;;;;;;;;;25.40;53.10;;;;;;5016397;28;19905;-83
2022/08/28 06:13:29;;;;;;;;;;;25.40;52.80;;;;;;5015847;28;19910;-82
2022/08/28 06:15:55;;;;;;;;;;;25.50;52.80;;;;;;5016022;28;19909;-83
2022/08/28 06:18:21;;;;;;;;;;;25.60;52.50;;;;;;5015987;28;19906;-82
2022/08/28 06:20:47;;;;;;;;;;;25.50;52.00;;;;;;5008878;28;20406;-84
2022/08/28 06:23:14;;;;;;;;;;;25.50;52.00;;;;;;5020486;28;19957;-83
2022/08/28 06:25:44;;;;;;;;;;;25.80;52.10;;;;;;5011838;28;19906;-82
2022/08/28 06:28:10;;;;;;;;;;;26.30;52.00;;;;;;5005651;28;19909;-83
2022/08/28 06:30:36;;;;;;;;;;;27.90;51.80;;;;;;4993899;28;19955;-81
2022/08/28 06:33:02;;;;;;;;;;;30.40;46.90;;;;;;5005178;28;19925;-81
2022/08/28 06:35:29;;;;;;;;;;;31.20;45.70;;;;;;4995931;28;20410;-83
2022/08/28 06:37:55;;;;;;;;;;;32.70;42.20;;;;;;5014380;28;19913;-84
2022/08/28 06:40:21;;;;;;;;;;;32.90;41.90;;;;;;4997543;28;19913;-83
2022/08/28 06:42:47;;;;;;;;;;;33.00;41.40;;;;;;5015742;28;19920;-83
2022/08/28 06:45:12;;;;;;;;;;;33.50;41.70;;;;;;5012151;28;19910;-83
2022/08/28 06:47:38;;;;;;;;;;;34.80;39.40;;;;;;5002830;28;19922;-81
2022/08/28 06:50:04;;;;;;;;;;;35.00;39.30;;;;;;4995862;28;19906;-84
2022/08/28 06:52:30;;;;;;;;;;;35.10;38.10;;;;;;4994913;28;19997;-84
2022/08/28 06:54:55;;;;;;;;;;;34.40;38.20;;;;;;4995796;28;19905;-80
2022/08/28 06:57:21;;;;;;;;;;;33.90;39.20;;;;;;4994286;28;19949;-83
2022/08/28 06:59:48;;;;;;;;;;;33.30;39.30;;;;;;4994548;28;19972;-82
2022/08/28 07:02:14;;;;;;;;;;;32.70;39.90;;;;;;4996657;28;19913;-83
2022/08/28 07:04:39;;;;;;;;;;;32.20;40.50;;;;;;5005121;28;19928;-82
2022/08/28 07:07:06;;;;;;;;;;;32.50;41.20;;;;;;4998081;28;19916;-83
2022/08/28 07:09:31;;;;;;;;;;;33.10;40.80;;;;;;4993306;28;20390;-83
2022/08/28 07:11:58;;;;;;;;;;;34.30;40.40;;;;;;4994325;28;19909;-84
2022/08/28 07:14:24;;;;;;;;;;;35.10;39.30;;;;;;4993969;28;19905;-83
2022/08/28 07:16:50;;;;;;;;;;;35.30;38.90;;;;;;4994574;28;19912;-83
2022/08/28 07:19:16;;;;;;;;;;;35.10;38.90;;;;;;5000111;28;19906;-83
2022/08/28 07:21:43;;;;;;;;;;;35.00;39.10;;;;;;4988930;28;19913;-84
2022/08/28 07:24:10;;;;;;;;;;;35.50;39.10;;;;;;4987959;28;19960;-82
2022/08/28 07:26:36;;;;;;;;;;;36.40;38.80;;;;;;4987065;28;19906;-82
2022/08/28 07:29:06;;;;;;;;;;;37.20;38.20;;;;;;4993404;28;20373;-82
2022/08/28 07:31:32;;;;;;;;;;;37.70;37.80;;;;;;4993817;28;20592;-82
2022/08/28 07:33:58;;;;;;;;;;;37.40;37.30;;;;;;4992966;28;19972;-85
2022/08/28 07:36:25;;;;;;;;;;;36.80;37.20;;;;;;4993366;28;19913;-84
2022/08/28 07:38:52;;;;;;;;;;;36.20;37.50;;;;;;4990385;28;19909;-83
2022/08/28 07:41:19;;;;;;;;;;;35.90;37.70;;;;;;4993465;28;19985;-83
2022/08/28 07:46:29;;;;;;;;;;;35.60;38.50;;;;;;4990571;28;20283;-82
2022/08/28 07:48:57;;;;;;;;;;;36.00;38.30;;;;;;5012560;28;19917;-82
2022/08/28 07:51:23;;;;;;;;;;;36.80;38.00;;;;;;5013062;28;19909;-82
2022/08/28 07:53:49;;;;;;;;;;;37.60;37.40;;;;;;5013934;28;20016;-82
2022/08/28 07:56:15;;;;;;;;;;;38.00;37.10;;;;;;5015248;28;19909;-82
2022/08/28 07:58:41;;;;;;;;;;;37.70;36.80;;;;;;5017117;28;21248;-83
2022/08/28 08:01:06;;;;;;;;;;;36.90;36.50;;;;;;5019630;28;19917;-82
2022/08/28 08:03:33;;;;;;;;;;;36.10;37.00;;;;;;4997494;28;19964;-85
2022/08/28 08:06:01;;;;;;;;;;;35.30;37.50;;;;;;4999074;28;20012;-82
2022/08/28 08:08:28;;;;;;;;;;;34.70;38.00;;;;;;4995021;28;20322;-84
2022/08/28 08:11:05;;;;;;;;;;;34.30;37.90;;;;;;5010316;28;19905;-84
2022/08/28 08:16:03;;;;;;;64.28;52.17;;;33.50;38.00;;;;;;5104750;27;1480417;-80
2022/08/28 08:18:29;;;;;;;67.32;52.92;;;33.20;39.80;;;;;;5131259;28;20068;-80
2022/08/28 08:20:55;;;;;;;76.73;54.37;;;33.00;39.40;;;;;;5132417;28;20027;-79
2022/08/28 08:23:24;;;;;;;67.57;52.03;;;32.60;39.70;;;;;;5130919;28;20039;-83
2022/08/28 08:26:11;;;;;;;64.85;51.97;;;32.30;40.80;;;;;;5132842;28;20023;-83
2022/08/28 08:28:38;;;;;;;64.63;51.35;;;32.10;40.70;;;;;;5131514;28;20038;-82
2022/08/28 08:31:17;;;;;;;56.45;48.85;;;32.20;41.00;;;;;;5130373;28;20466;-84
2022/08/28 08:33:49;;;;;;;69.22;49.85;;;32.20;41.50;;;;;;5110799;28;20023;-79
2022/08/28 08:36:18;;;;;;;64.55;51.85;;;32.30;40.80;;;;;;5110421;28;20027;-80
2022/08/28 08:38:49;;;;;;;74.43;54.67;;;32.30;40.80;;;;;;5106585;28;20035;-82
2022/08/28 08:41:29;;;;;;;65.93;52.58;;;32.20;40.70;;;;;;5131351;28;20031;-79
2022/08/28 08:44:18;;;;;;;62.47;49.58;;;32.20;41.00;;;;;;5119477;28;20031;-79
2022/08/28 08:47:02;;;;;;;69.55;51.72;;;32.40;41.20;;;;;;5121497;28;20032;-79
2022/08/28 08:49:33;;;;;;;73.47;53.35;;;33.00;41.30;;;;;;5125012;28;20036;-77
2022/08/28 08:52:20;;;;;;;67.40;50.53;;;33.60;39.80;;;;;;5128157;28;20482;-78
2022/08/28 08:55:26;;;;;;;70.05;52.35;;;34.40;39.30;;;;;;5123523;28;20114;-77
2022/08/28 08:58:10;;;;;;;68.15;50.70;;;34.60;38.20;;;;;;5097966;28;20036;-76
2022/08/28 09:00:53;;;;;;;58.85;48.60;;;35.20;37.60;;;;;;5121922;28;20019;-79
2022/08/28 09:03:31;;;;;;;59.58;49.78;;;36.00;36.70;;;;;;5129281;28;20472;-76
2022/08/28 09:06:01;;;;;;;67.13;45.95;;;36.00;36.00;;;;;;5111148;28;20016;-75
2022/08/28 09:08:51;;;;;;;61.92;50.00;;;35.50;36.50;;;;;;5129023;28;20381;-78
2022/08/28 09:11:44;;;;;;;62.78;48.80;;;35.20;36.90;;;;;;5110500;28;20786;-77
2022/08/28 09:14:12;;;;;;;64.82;46.05;;;34.50;37.30;;;;;;5115767;28;20044;-78
2022/08/28 09:16:43;;;;;;;62.35;44.75;;;34.20;37.80;;;;;;5084654;28;20485;-78
2022/08/28 09:19:12;;;;;;;56.13;44.30;;;34.60;37.60;;;;;;5106507;28;20082;-76
2022/08/28 09:21:41;;;;;;;58.13;44.92;;;35.10;37.30;;;;;;5077277;28;20111;-78
2022/08/28 09:24:18;;;;;;;61.97;42.13;;;35.80;36.40;;;;;;5089577;28;20450;-79
2022/08/28 09:26:55;;;;;;;48.50;40.15;;;36.60;35.70;;;;;;5094019;28;20046;-77
2022/08/28 09:29:28;;;;;;;53.38;39.53;;;37.40;34.80;;;;;;5078219;28;20512;-76
2022/08/28 09:31:54;;;;;;;46.47;39.95;;;37.90;33.60;;;;;;5058955;28;20116;-78
2022/08/28 09:34:31;;;;;;;44.38;35.72;;;37.60;33.20;;;;;;5063462;28;20028;-79
2022/08/28 09:36:59;;;;;;;43.80;35.30;;;37.40;33.40;;;;;;5078792;28;20381;-77
2022/08/28 09:39:31;;;;;;;44.70;35.55;;;37.10;33.10;;;;;;5077063;28;20117;-78
2022/08/28 09:45:13;;;;;;;39.63;32.95;;;37.80;33.30;;;;;;5079540;28;20078;-78
2022/08/28 09:47:54;;;;;;;45.75;33.00;;;38.30;32.60;;;;;;5081595;28;20374;-76
2022/08/28 09:50:34;;;;;;;46.90;34.65;;;38.40;32.30;;;;;;5081887;28;20016;-80
2022/08/28 09:53:16;;;;;;;44.97;35.00;;;38.50;32.00;;;;;;5079288;28;20027;-77
2022/08/28 09:56:19;;;;;;;39.50;35.17;;;38.20;32.30;;;;;;5061559;28;20032;-79
2022/08/28 09:58:49;;;;;;;42.70;31.67;;;38.20;32.70;;;;;;5084308;28;20023;-78
2022/08/28 10:01:37;;;;;;;40.83;35.17;;;38.30;31.70;;;;;;5082370;28;20009;-79
2022/08/28 10:04:14;;;;;;;40.85;30.85;;;38.00;32.20;;;;;;5083266;28;20547;-76
2022/08/28 10:07:04;;;;;;;43.65;33.28;;;37.60;31.80;;;;;;5084502;28;20024;-78
2022/08/28 10:10:21;;;;;;;37.92;32.38;;;37.30;32.20;;;;;;5031449;28;20066;-83
2022/08/28 10:13:02;;;;;;;45.13;34.42;;;37.20;32.90;;;;;;5063705;28;20035;-84
2022/08/28 10:15:40;;;;;;;50.00;32.03;;;37.90;32.50;;;;;;5094789;28;20059;-84
2022/08/28 10:18:33;;;;;;;35.22;31.02;;;38.60;31.90;;;;;;5097891;28;20028;-80
2022/08/28 10:21:14;;;;;;;35.40;26.50;;;;;;;;;;5075704;28;20119;-78
2022/08/28 10:23:41;;;;;;;30.83;25.80;;;;;;;;;;5072855;28;20032;-83
2022/08/28 10:26:22;;;;;;;32.45;26.73;;;;;;;;;;5085775;28;20023;-81
2022/08/28 10:28:58;;;;;;;39.55;29.70;;;;;;;;;;5091088;28;20037;-85
2022/08/28 10:31:28;;;;;;;33.25;27.30;;;;;;;;;;5068547;28;20046;-88
2022/08/28 10:34:05;;;;;;;34.63;23.60;;;;;;;;;;5095606;28;20024;-89
2022/08/28 10:36:34;;;;;;;38.47;25.13;;;39.50;31.50;;;;;;5097132;28;20102;-87
2022/08/28 10:39:32;;;;;;;40.45;28.80;;;35.10;32.70;;;;;;5099702;28;20024;-87
2022/08/28 10:42:01;;;;;;;35.17;25.90;;;34.20;33.70;;;;;;5093240;28;20024;-84
2022/08/28 10:44:54;;;;;;;31.60;24.88;;;33.80;34.70;;;;;;5098529;28;20031;-83
2022/08/28 10:47:23;;;;;;;25.00;16.88;;;33.70;34.60;;;;;;5075600;28;20047;-86
2022/08/28 10:49:53;;;;;;;25.05;16.33;;;33.70;33.00;;;;;;5076652;28;20460;-86
2022/08/28 10:52:18;;;;;;;23.58;15.52;;;33.60;31.90;;;;;;5076531;28;20024;-84
2022/08/28 10:55:05;;;;;;;25.87;15.30;;;33.50;32.00;;;;;;5078013;28;20390;-85
2022/08/28 10:57:48;;;;;;;15.20;12.75;;;33.60;32.10;;;;;;5065932;28;20016;-83
2022/08/28 11:00:18;;;;;;;18.15;13.95;;;33.70;31.70;;;;;;5079663;28;20024;-83
2022/08/28 11:02:48;;;;;;;22.05;15.38;;;33.40;31.70;;;;;;5079664;28;20470;-87
2022/08/28 11:05:20;;;;;;;21.85;14.85;;;33.20;32.50;;;;;;5092565;28;20413;-86
2022/08/28 11:07:57;;;;;;;21.35;14.60;;;33.10;32.60;;;;;;5085248;28;20039;-84
2022/08/28 11:10:35;;;;;;;18.88;14.48;;;33.30;32.40;;;;;;5081642;28;20438;-82
2022/08/28 11:13:03;;;;;;;21.83;14.25;;;33.30;32.10;;;;;;5076983;28;20028;-85
2022/08/28 11:15:30;;;;;;;24.10;16.30;;;33.40;32.10;;;;;;5079446;28;20055;-84
2022/08/28 11:18:17;;;;;;;21.48;16.02;;;33.30;32.40;;;;;;5080148;28;20028;-87
2022/08/28 11:20:58;;;;;;;20.38;15.10;;;33.30;32.40;;;;;;5069804;28;20031;-91
2022/08/28 11:23:51;;;;;;;15.73;14.02;;;33.40;32.30;;;;;;5084180;28;20016;-90
2022/08/28 11:26:43;;;;;;;20.42;13.48;;;33.40;32.30;;;;;;5092943;28;20036;-88
2022/08/28 11:29:09;;;;;;;21.02;14.40;;;33.20;32.00;;;;;;5084842;28;20036;-84
2022/08/28 11:31:37;;;;;;;19.17;16.07;;;32.90;32.40;;;;;;5091834;28;20023;-85
2022/08/28 11:34:04;;;;;;;24.73;16.42;;;32.70;32.80;;;;;;5058815;28;20039;-83
2022/08/28 11:36:32;;;;;;;22.38;14.63;;;32.70;33.50;;;;;;5090755;28;20030;-84
2022/08/28 11:39:03;;;;;;;26.60;16.08;;;32.70;32.90;;;;;;5083705;28;20028;-84
2022/08/28 11:41:33;;;;;;;24.05;14.65;;;32.70;33.30;;;;;;5084577;28;20555;-84
2022/08/28 11:44:11;;;;;;;18.30;13.90;;;32.50;32.40;;;;;;5089781;28;20081;-84
2022/08/28 11:46:47;;;;;;;23.63;13.85;;;32.40;32.40;;;;;;5091240;28;20023;-86
2022/08/28 11:49:25;;;;;;;19.20;12.93;;;32.20;32.10;;;;;;5071869;28;20410;-83
2022/08/28 11:52:00;;;;;;;19.52;12.63;;;32.00;31.10;;;;;;5094716;28;20039;-86
2022/08/28 11:55:03;;;;;;;18.73;13.23;;;31.90;31.30;;;;;;5100176;28;20121;-84
2022/08/28 11:58:07;;;;;;;23.63;13.63;;;31.80;31.50;;;;;;5084068;28;20043;-86
2022/08/28 12:01:08;;;;;;;21.67;13.25;;;31.70;31.40;;;;;;5086835;28;20512;-86
2022/08/28 12:03:40;;;;;;;22.15;13.02;;;31.70;31.20;;;;;;5050286;28;20032;-83
2022/08/28 12:06:07;;;;;;;26.15;14.07;;;31.60;31.00;;;;;;5064484;28;20027;-86
2022/08/28 12:08:50;;;;;;;21.38;14.80;;;31.50;31.30;;;;;;5076663;28;20020;-82
2022/08/28 12:11:58;;;;;;;25.50;16.05;;;31.60;31.50;;;;;;5080548;28;20050;-86
2022/08/28 12:14:24;;;;;;;21.65;15.68;;;31.70;31.70;;;;;;5013660;28;20105;-88
2022/08/28 12:17:23;;;;;;;20.42;16.42;;;31.80;31.70;;;;;;4993722;28;20562;-88
2022/08/28 12:20:10;;;;;;;21.50;16.23;;;32.00;31.90;;;;;;5014918;28;20106;-91
2022/08/28 12:22:56;;;;;;;24.52;15.77;;;32.40;32.10;;;;;;5001131;28;20026;-86
2022/08/28 12:25:40;;;;;;;26.30;15.95;;;32.70;31.70;;;;;;5012205;28;20113;-85
2022/08/28 12:28:25;;;;;;;26.05;17.17;;;32.70;31.40;;;;;;4996167;28;20034;-85
2022/08/28 12:32:09;;;;;;;25.40;17.25;;;32.70;31.80;;;;;;4993695;28;20064;-85
2022/08/28 12:34:13;;;;;;;24.58;15.07;;;32.80;31.90;;;;;;5012428;28;20037;-88
2022/08/28 12:36:40;;;;;;;17.98;14.43;;;32.70;31.90;;;;;;5012006;28;20033;-86
2022/08/28 12:39:05;;;;;;;;;;;32.50;31.60;;;;;;5015613;28;20530;-84
2022/08/28 12:41:32;;;;;;;18.83;13.93;;;32.30;31.70;;;;;;5010409;28;19910;-83
2022/08/28 12:43:59;;;;;;;20.80;13.35;;;32.20;31.10;;;;;;4999292;28;20022;-82
2022/08/28 12:46:37;;;;;;;21.65;12.95;;;32.00;31.50;;;;;;5097087;28;20008;-84
2022/08/28 12:49:23;;;;;;;22.27;13.52;;;31.90;31.40;;;;;;5073907;28;20416;-82
2022/08/28 12:52:11;;;;;;;22.38;12.88;;;31.80;31.60;;;;;;5063832;28;20028;-82
2022/08/28 12:54:38;;;;;;;21.77;14.18;;;31.70;32.10;;;;;;5075874;28;20032;-86
2022/08/28 12:57:07;;;;;;;24.38;14.05;;;31.50;31.80;;;;;;5081964;28;20496;-87
2022/08/28 12:59:43;;;;;;;18.30;13.90;;;31.30;32.10;;;;;;5078048;28;20138;-83
2022/08/28 13:02:18;;;;;;;;;;;31.20;32.40;;;;;;5078553;28;20024;-82
2022/08/28 13:04:57;;;;;;;22.17;14.70;;;31.00;33.10;;;;;;5082352;28;19911;-81
2022/08/28 13:07:33;;;;;;;30.52;14.70;;;30.80;33.00;;;;;;5097833;28;20451;-80
2022/08/28 13:10:04;;;;;;;20.88;14.02;;;30.70;33.00;;;;;;5082043;28;20017;-82
2022/08/28 13:12:31;;;;;;;25.83;14.93;;;30.70;34.20;;;;;;5096765;28;20025;-85
2022/08/28 13:14:57;;;;;;;24.75;14.88;;;30.50;34.20;;;;;;5085979;28;20404;-84
2022/08/28 13:17:45;;;;;;;22.67;15.23;;;30.50;34.30;;;;;;5086140;28;20028;-85
2022/08/28 13:20:23;;;;;;;28.08;15.15;;;30.50;34.40;;;;;;5074853;28;20078;-86
2022/08/28 13:22:50;;;;;;;36.03;14.45;;;30.50;34.60;;;;;;5074139;28;20088;-88
2022/08/28 13:25:22;;;;;;;30.38;15.43;;;30.60;34.70;;;;;;5100938;28;20024;-86
2022/08/28 13:28:01;;;;;;;24.95;14.73;;;30.60;33.60;;;;;;5087888;28;20040;-85
2022/08/28 13:30:32;;;;;;;29.00;14.85;;;30.70;33.50;;;;;;5098175;28;20028;-86
2022/08/28 13:33:17;;;;;;;23.58;14.00;;;30.80;33.80;;;;;;5084857;28;20031;-83
2022/08/28 13:35:43;;;;;;;23.70;13.68;;;30.80;33.20;;;;;;5104968;28;20139;-84
2022/08/28 13:38:15;;;;;;;27.15;14.73;;;30.80;33.20;;;;;;5074458;28;20088;-85
2022/08/28 13:41:02;;;;;;;29.50;14.98;;;30.90;33.70;;;;;;5064024;28;20118;-82
2022/08/28 13:43:40;;;;;;;22.17;13.52;;;30.90;34.50;;;;;;5087718;28;20032;-86
2022/08/28 13:46:06;;;;;;;23.13;13.82;;;30.90;33.70;;;;;;5076149;28;20027;-83
2022/08/28 13:48:32;;;;;;;24.85;13.93;;;31.00;34.20;;;;;;5081580;28;20474;-87
2022/08/28 13:51:05;;;;;;;18.50;13.35;;;31.00;33.90;;;;;;5101581;28;20024;-87
2022/08/28 13:53:31;;;;;;;25.52;14.45;;;31.10;33.50;;;;;;5096403;28;20033;-88
2022/08/28 13:55:59;;;;;;;26.70;12.60;;;31.10;34.10;;;;;;5075702;28;20497;-85
2022/08/28 13:58:25;;;;;;;19.00;12.13;;;31.10;34.90;;;;;;5100744;28;20099;-85
2022/08/28 14:00:53;;;;;;;19.10;12.20;;;31.00;33.90;;;;;;5102702;28;20028;-88